Wilson Lahn — 8PUO — position and weather

sailwx.info

Track history (hours):
 
Tides and Currents Weather Stations Pressure Air Temp Water Temp Dewpoint Dewpoint Depression Visibility Wind Speed Wind Dir Waves Ship Positions

Wilson Lahn

Last reported at 2014-Aug-19 17:19 UTC. Time now 2014-Aug-21 00:26 UTC.
Position N 51°54' E 005°32'.

Length 83 m; draft 3.5 m.

Type: Cargo ship. MMSI: 314259000.

Date/timePositionNaut miles runAvg speedWind from/ knotsBaromVisibWave heightAir tempDewpointWater temp
2014-Aug-19 17:19N 51°54' E 005°32'6 7.5
2014-Aug-19 16:33N 51°51' E 005°24'7 7.0
2014-Aug-19 15:34N 51°49' E 005°14'9 8.5
2014-Aug-19 14:33N 51°49' E 004°60'9 8.8
2014-Aug-19 13:33N 51°49' E 004°46'7 6.4
2014-Aug-19 12:32N 51°45' E 004°38'3 0.2
2014-Aug-18 18:18N 51°42' E 004°36'1 1.6
2014-Aug-18 17:34N 51°42' E 004°37'7 6.8
2014-Aug-18 16:34N 51°49' E 004°34'9 8.5
2014-Aug-18 15:33N 51°51' E 004°20'8 8.2
2014-Aug-18 14:33N 51°57' E 004°10'9 9.4
2014-Aug-18 13:34N 52°01' E 003°56'10 9.6
2014-Aug-18 12:33N 52°08' E 003°47'1310.0
2014-Aug-18 11:18N 52°21' E 003°48'8 8.8
2014-Aug-18 10:27N 52°28' E 003°51'8 8.3
2014-Aug-18 09:32N 52°35' E 003°53'8 7.9
2014-Aug-18 08:33N 52°43' E 003°56'8 7.5
2014-Aug-18 07:29N 52°51' E 003°58'8 6.3
2014-Aug-18 06:10N 52°59' E 004°04'  
2014-Aug-13 19:33N 59°11' E 005°01'1111.1
2014-Aug-13 18:33N 59°07' E 005°21'9 8.9
2014-Aug-13 17:33N 58°60' E 005°33'5 4.5
2014-Aug-13 16:31N 58°55' E 005°36'0 0.0
2014-Aug-13 15:31N 58°55' E 005°36'0 0.0
2014-Aug-13 14:31N 58°55' E 005°36'0 0.0
2014-Aug-13 13:31N 58°55' E 005°36'2 2.5
2014-Aug-13 12:33N 58°57' E 005°33'8 8.0
2014-Aug-13 11:34N 59°02' E 005°46'6 5.7
2014-Aug-13 10:33N 59°05' E 005°55'0 0.0
2014-Aug-13 09:33N 59°05' E 005°55'0 0.0
2014-Aug-13 08:33N 59°05' E 005°55'0 0.0
2014-Aug-13 07:33N 59°05' E 005°55'0 0.0
2014-Aug-13 06:33N 59°05' E 005°55'0 0.0
2014-Aug-13 05:33N 59°05' E 005°55'0 0.0
2014-Aug-13 04:33N 59°05' E 005°55'0 0.0
2014-Aug-13 03:33N 59°05' E 005°55'0 0.0
2014-Aug-13 02:33N 59°05' E 005°55'0 0.0
2014-Aug-13 01:33N 59°05' E 005°55'0 0.0
2014-Aug-13 00:33N 59°05' E 005°55'5 4.9
2014-Aug-12 23:34N 59°02' E 005°48'8 8.2
2014-Aug-12 22:34N 58°59' E 005°33'1111.4
2014-Aug-12 21:34N 58°48' E 005°26'1511.6
2014-Aug-12 20:13N 58°33' E 005°32'812.1
2014-Aug-12 19:33N 58°25' E 005°36'10 9.9
2014-Aug-12 18:33N 58°20' E 005°51'8 8.1
2014-Aug-12 17:34N 58°14' E 006°03'1110.7
2014-Aug-12 16:33N 58°04' E 006°07'140 5.2
2014-Aug-11 13:22N 58°56' E 010°16'6 7.6
2014-Aug-11 12:33N 58°58' E 010°27'8 8.3
2014-Aug-11 11:34N 59°01' E 010°42'8 8.3
2014-Aug-11 10:33N 59°01' E 010°58'1010.0
2014-Aug-11 09:34N 59°11' E 010°57'0 0.0
2014-Aug-11 08:32N 59°11' E 010°57'0 0.0
2014-Aug-11 07:32N 59°11' E 010°57'0 0.0
2014-Aug-11 06:32N 59°11' E 010°57'0 0.0
2014-Aug-11 05:32N 59°11' E 010°57'0 0.0
2014-Aug-11 04:32N 59°11' E 010°57'0 0.0
2014-Aug-11 03:32N 59°11' E 010°57'0 0.0
2014-Aug-11 02:32N 59°11' E 010°57'0 0.0
2014-Aug-11 01:32N 59°11' E 010°57'0 0.0
2014-Aug-11 00:32N 59°11' E 010°57'0 0.0
2014-Aug-10 23:32N 59°11' E 010°57'0 0.0
2014-Aug-10 22:32N 59°11' E 010°57'0 0.0
2014-Aug-10 21:32N 59°11' E 010°57'0 0.0
2014-Aug-10 20:32N 59°11' E 010°57'0 0.0
2014-Aug-10 19:32N 59°11' E 010°57'0 0.0
2014-Aug-10 18:32N 59°11' E 010°57'0 0.0
2014-Aug-10 17:32N 59°11' E 010°57'0 0.5
2014-Aug-10 16:33N 59°11' E 010°57'8 7.7
2014-Aug-10 15:33N 59°03' E 010°58'8 8.3
2014-Aug-10 14:33N 59°01' E 010°42'1010.0
2014-Aug-10 13:32N 58°57' E 010°24'6210.1
2014-Aug-10 07:22N 58°15' E 008°58'810.2
2014-Aug-10 06:33N 58°08' E 008°49'6011.1
2014-Aug-10 01:09N 57°13' E 008°02'711.1
2014-Aug-10 00:33N 57°08' E 007°56'1110.7
2014-Aug-09 23:32N 56°58' E 007°47'1110.8
2014-Aug-09 22:33N 56°49' E 007°36'1010.3
2014-Aug-09 21:33N 56°40' E 007°27'1010.3
2014-Aug-09 20:33N 56°31' E 007°18'1010.2
2014-Aug-09 19:33N 56°22' E 007°09'1010.2
2014-Aug-09 18:33N 56°13' E 006°60'  
Track history (hours):
 
Tides and Currents Weather Stations Pressure Air Temp Water Temp Dewpoint Dewpoint Depression Visibility Wind Speed Wind Dir Waves Ship Positions

Wilson Lahn

Last reported at 2014-Aug-19 17:19 UTC. Time now 2014-Aug-21 00:26 UTC.
Position N 51°54' E 005°32'.

Length 83 m; draft 3.5 m.

Type: Cargo ship. MMSI: 314259000.

Date/timePositionNaut miles runAvg speedWind from/ knotsBaromVisibWave heightAir tempDewpointWater temp
2014-Aug-19 17:19N 51°54' E 005°32'6 7.5
2014-Aug-19 16:33N 51°51' E 005°24'7 7.0
2014-Aug-19 15:34N 51°49' E 005°14'9 8.5
2014-Aug-19 14:33N 51°49' E 004°60'9 8.8
2014-Aug-19 13:33N 51°49' E 004°46'7 6.4
2014-Aug-19 12:32N 51°45' E 004°38'3 0.2
2014-Aug-18 18:18N 51°42' E 004°36'1 1.6
2014-Aug-18 17:34N 51°42' E 004°37'7 6.8
2014-Aug-18 16:34N 51°49' E 004°34'9 8.5
2014-Aug-18 15:33N 51°51' E 004°20'8 8.2
2014-Aug-18 14:33N 51°57' E 004°10'9 9.4
2014-Aug-18 13:34N 52°01' E 003°56'10 9.6
2014-Aug-18 12:33N 52°08' E 003°47'1310.0
2014-Aug-18 11:18N 52°21' E 003°48'8 8.8
2014-Aug-18 10:27N 52°28' E 003°51'8 8.3
2014-Aug-18 09:32N 52°35' E 003°53'8 7.9
2014-Aug-18 08:33N 52°43' E 003°56'8 7.5
2014-Aug-18 07:29N 52°51' E 003°58'8 6.3
2014-Aug-18 06:10N 52°59' E 004°04'  
2014-Aug-13 19:33N 59°11' E 005°01'1111.1
2014-Aug-13 18:33N 59°07' E 005°21'9 8.9
2014-Aug-13 17:33N 58°60' E 005°33'5 4.5
2014-Aug-13 16:31N 58°55' E 005°36'0 0.0
2014-Aug-13 15:31N 58°55' E 005°36'0 0.0
2014-Aug-13 14:31N 58°55' E 005°36'0 0.0
2014-Aug-13 13:31N 58°55' E 005°36'2 2.5
2014-Aug-13 12:33N 58°57' E 005°33'8 8.0
2014-Aug-13 11:34N 59°02' E 005°46'6 5.7
2014-Aug-13 10:33N 59°05' E 005°55'0 0.0
2014-Aug-13 09:33N 59°05' E 005°55'0 0.0
2014-Aug-13 08:33N 59°05' E 005°55'0 0.0
2014-Aug-13 07:33N 59°05' E 005°55'0 0.0
2014-Aug-13 06:33N 59°05' E 005°55'0 0.0
2014-Aug-13 05:33N 59°05' E 005°55'0 0.0
2014-Aug-13 04:33N 59°05' E 005°55'0 0.0
2014-Aug-13 03:33N 59°05' E 005°55'0 0.0
2014-Aug-13 02:33N 59°05' E 005°55'0 0.0
2014-Aug-13 01:33N 59°05' E 005°55'0 0.0
2014-Aug-13 00:33N 59°05' E 005°55'5 4.9
2014-Aug-12 23:34N 59°02' E 005°48'8 8.2
2014-Aug-12 22:34N 58°59' E 005°33'1111.4
2014-Aug-12 21:34N 58°48' E 005°26'1511.6
2014-Aug-12 20:13N 58°33' E 005°32'812.1
2014-Aug-12 19:33N 58°25' E 005°36'10 9.9
2014-Aug-12 18:33N 58°20' E 005°51'8 8.1
2014-Aug-12 17:34N 58°14' E 006°03'1110.7
2014-Aug-12 16:33N 58°04' E 006°07'140 5.2
2014-Aug-11 13:22N 58°56' E 010°16'6 7.6
2014-Aug-11 12:33N 58°58' E 010°27'8 8.3
2014-Aug-11 11:34N 59°01' E 010°42'8 8.3
2014-Aug-11 10:33N 59°01' E 010°58'1010.0
2014-Aug-11 09:34N 59°11' E 010°57'0 0.0
2014-Aug-11 08:32N 59°11' E 010°57'0 0.0
2014-Aug-11 07:32N 59°11' E 010°57'0 0.0
2014-Aug-11 06:32N 59°11' E 010°57'0 0.0
2014-Aug-11 05:32N 59°11' E 010°57'0 0.0
2014-Aug-11 04:32N 59°11' E 010°57'0 0.0
2014-Aug-11 03:32N 59°11' E 010°57'0 0.0
2014-Aug-11 02:32N 59°11' E 010°57'0 0.0
2014-Aug-11 01:32N 59°11' E 010°57'0 0.0
2014-Aug-11 00:32N 59°11' E 010°57'0 0.0
2014-Aug-10 23:32N 59°11' E 010°57'0 0.0
2014-Aug-10 22:32N 59°11' E 010°57'0 0.0
2014-Aug-10 21:32N 59°11' E 010°57'0 0.0
2014-Aug-10 20:32N 59°11' E 010°57'0 0.0
2014-Aug-10 19:32N 59°11' E 010°57'0 0.0
2014-Aug-10 18:32N 59°11' E 010°57'0 0.0
2014-Aug-10 17:32N 59°11' E 010°57'0 0.5
2014-Aug-10 16:33N 59°11' E 010°57'8 7.7
2014-Aug-10 15:33N 59°03' E 010°58'8 8.3
2014-Aug-10 14:33N 59°01' E 010°42'1010.0
2014-Aug-10 13:32N 58°57' E 010°24'6210.1
2014-Aug-10 07:22N 58°15' E 008°58'810.2
2014-Aug-10 06:33N 58°08' E 008°49'6011.1
2014-Aug-10 01:09N 57°13' E 008°02'711.1
2014-Aug-10 00:33N 57°08' E 007°56'1110.7
2014-Aug-09 23:32N 56°58' E 007°47'1110.8
2014-Aug-09 22:33N 56°49' E 007°36'1010.3
2014-Aug-09 21:33N 56°40' E 007°27'1010.3
2014-Aug-09 20:33N 56°31' E 007°18'1010.2
2014-Aug-09 19:33N 56°22' E 007°09'1010.2
2014-Aug-09 18:33N 56°13' E 006°60'  

Dump ship's entire track history